Blue Jay, California
Current Conditions -  °F | °C
As of 4:50 PM on Wednesday 22 Oct 2014 (Local Time) from KSBD Reporting Station
Broken Clouds Broken Clouds  
Wind Chill: 86°   Ceiling: 20000
Heat Index: 86°   Visibility: 10mi
Dew Point: 32°   Wind: 10mph
Humidity: 14%   Direction: 260°W
Pressure: 29.89"   Gusts: NA
Location:  34.25°N, 117.21°W
Report Text: KSBD 222350Z 26009KT 10SM BKN200 30/00 A2989
Loading
Personal Weather Stations






























Interactive Weather Map New forecast layout! Learn more

10-Day Weather Forecast

Advertisements
Track Severe Weather on mobile